Time;durP1;ratioP1;P1;durP2;ratioP2;P2;SDS_P1;SDS_P2;PMS_P1;PMS_P2;Temp;Humidity;BMP_temperature;BMP_pressure;BME280_temperature;BME280_humidity;BME280_pressure;Samples;Min_cycle;Max_cycle;Signal;HPM_P1;HPM_P2
2021/12/21 00:02:09;;;;;;;2.20;1.00;;;;;;;-5.91;76.06;98345.77;102128;1313;75697;-18
2021/12/21 00:04:35;;;;;;;2.00;1.30;;;;;;;-6.02;76.08;98348.28;102117;1314;75049;-17
2021/12/21 00:07:15;;;;;;;2.10;1.20;;;;;;;-6.20;77.09;98349.08;102057;1310;74389;-21
2021/12/21 00:09:42;;;;;;;2.60;1.10;;;;;;;-6.21;77.41;98350.27;102038;1314;61153;-19
2021/12/21 00:12:12;;;;;;;1.80;1.30;;;;;;;-6.20;77.14;98351.42;102262;1313;61217;-18
2021/12/21 00:17:56;;;;;;;1.80;1.20;;;;;;;-5.95;76.97;98362.30;101967;1319;75815;-21
2021/12/21 00:25:56;;;;;;;0.60;0.60;;;;;;;-6.23;80.69;98375.34;101755;1313;61126;-20
2021/12/21 00:28:24;;;;;;;1.50;0.80;;;;;;;-6.20;81.17;98365.97;101761;1316;73642;-20
2021/12/21 00:31:06;;;;;;;0.80;0.80;;;;;;;-5.68;79.53;98377.14;101794;1313;75263;-20
2021/12/21 00:33:33;;;;;;;2.40;1.20;;;;;;;-5.82;79.26;98380.90;101625;1317;73459;-19
2021/12/21 00:36:00;;;;;;;1.70;1.10;;;;;;;-6.07;80.73;98374.77;102021;1313;61514;-20
2021/12/21 00:38:26;;;;;;;1.60;0.90;;;;;;;-6.28;80.86;98383.23;101824;1313;61903;-20
2021/12/21 00:40:53;;;;;;;1.70;1.20;;;;;;;-6.76;78.89;98384.47;102028;1314;74742;-19
2021/12/21 00:43:20;;;;;;;5.70;1.30;;;;;;;-7.01;78.59;98391.73;102028;1313;75867;-20
2021/12/21 00:45:48;;;;;;;4.00;1.20;;;;;;;-6.88;78.28;98398.71;102086;1314;74712;-19
2021/12/21 00:48:16;;;;;;;6.00;1.40;;;;;;;-6.79;76.95;98395.67;102177;1314;61242;-19
2021/12/21 00:50:44;;;;;;;1.60;1.00;;;;;;;-6.90;76.33;98401.80;102133;1317;61632;-20
2021/12/21 00:53:21;;;;;;;2.00;1.20;;;;;;;-6.84;74.76;98397.31;101865;1313;75635;-20
2021/12/21 00:55:48;;;;;;;2.50;1.40;;;;;;;-7.10;75.13;98409.29;102031;1313;76033;-20
2021/12/21 00:58:15;;;;;;;2.40;1.20;;;;;;;-7.21;74.97;98408.00;102047;1314;74430;-19
2021/12/21 01:00:42;;;;;;;5.40;2.30;;;;;;;-7.23;75.45;98407.70;102025;1313;61188;-20
2021/12/21 01:03:16;;;;;;;2.00;1.10;;;;;;;-7.30;76.40;98415.59;102054;1314;61924;-19
2021/12/21 01:06:39;;;;;;;4.60;1.70;;;;;;;-6.93;75.76;98418.92;102014;1313;75625;-20
2021/12/21 01:08:42;;;;;;;2.00;1.10;;;;;;;-6.94;75.05;98419.61;102164;1313;76071;-20
2021/12/21 01:11:22;;;;;;;2.10;1.30;;;;;;;-7.20;76.11;98420.46;102050;1314;73255;-19
2021/12/21 01:14:07;;;;;;;1.40;1.30;;;;;;;-7.19;75.73;98423.48;101946;1313;62327;-20
2021/12/21 01:21:35;;;;;;;2.60;1.40;;;;;;;-7.45;74.66;98437.12;101924;1314;74904;-20
2021/12/21 01:24:16;;;;;;;3.10;1.70;;;;;;;-7.11;72.87;98438.67;102165;1313;73485;-20
2021/12/21 01:27:18;;;;;;;3.70;1.40;;;;;;;-7.10;72.30;98443.90;102143;1313;61142;-20
2021/12/21 01:32:57;;;;;;;5.00;2.90;;;;;;;-7.30;72.61;98455.25;102052;1313;75292;-21
2021/12/21 01:35:35;;;;;;;3.90;1.80;;;;;;;-7.35;73.14;98460.21;101992;1313;76206;-20
2021/12/21 01:40:47;;;;;;;2.00;1.10;;;;;;;-7.41;73.02;98462.68;102100;1316;61559;-20
2021/12/21 01:43:28;;;;;;;1.10;0.60;;;;;;;-7.13;71.71;98469.27;101840;1313;61425;-20
2021/12/21 01:51:28;;;;;;;3.10;1.40;;;;;;;-7.49;69.48;98478.66;102282;1314;74339;-20
2021/12/21 01:53:55;;;;;;;3.10;1.70;;;;;;;-7.62;69.75;98470.64;102178;1313;62963;-20
2021/12/21 01:56:22;;;;;;;1.70;0.90;;;;;;;-7.73;70.31;98479.75;101900;1314;61133;-20
2021/12/21 01:58:50;;;;;;;1.80;1.40;;;;;;;-7.74;70.93;98485.34;102272;1313;74694;-19
2021/12/21 02:01:18;;;;;;;2.70;1.60;;;;;;;-7.75;71.18;98494.77;102246;1314;76198;-19
2021/12/21 02:03:47;;;;;;;2.10;1.50;;;;;;;-7.88;71.17;98488.58;101917;1314;73882;-20
2021/12/21 02:06:16;;;;;;;1.30;0.90;;;;;;;-7.87;71.09;98494.11;102161;1313;61908;-20
2021/12/21 02:08:44;;;;;;;1.50;1.20;;;;;;;-7.36;69.88;98496.83;101954;1316;61195;-20
2021/12/21 02:11:11;;;;;;;3.60;1.80;;;;;;;-6.76;67.94;98504.17;102184;1316;75413;-20
2021/12/21 02:13:43;;;;;;;1.10;0.80;;;;;;;-6.56;67.27;98505.45;102048;1314;76113;-20
2021/12/21 02:16:11;;;;;;;1.90;1.00;;;;;;;-6.77;66.93;98505.71;101929;1313;73303;-20
2021/12/21 02:18:51;;;;;;;2.30;1.40;;;;;;;-6.85;67.45;98505.02;102122;1317;61227;-20
2021/12/21 02:23:48;;;;;;;1.30;0.80;;;;;;;-7.28;68.98;98504.63;102117;1316;75401;-20
2021/12/21 02:29:10;;;;;;;3.70;1.80;;;;;;;-7.55;70.09;98493.98;101987;1313;73547;-20
2021/12/21 02:31:38;;;;;;;2.40;1.20;;;;;;;-7.71;70.88;98498.77;101457;1313;403570;-20
2021/12/21 02:34:05;;;;;;;4.30;1.90;;;;;;;-7.74;71.08;98504.70;101942;1320;62247;-20
2021/12/21 02:36:32;;;;;;;2.00;1.00;;;;;;;-7.78;71.32;98501.41;102086;1314;75614;-20
2021/12/21 02:39:00;;;;;;;1.10;0.60;;;;;;;-7.62;71.13;98508.05;102163;1314;76081;-20
2021/12/21 02:41:28;;;;;;;1.00;0.70;;;;;;;-6.97;68.75;98518.57;102005;1314;74372;-20
2021/12/21 02:43:56;;;;;;;0.80;0.60;;;;;;;-6.34;67.45;98513.77;102121;1317;61185;-20
2021/12/21 02:46:23;;;;;;;0.30;0.30;;;;;;;-6.36;67.10;98518.38;102109;1317;61201;-20
2021/12/21 02:48:51;;;;;;;3.20;2.10;;;;;;;-6.70;67.84;98519.41;102094;1316;74566;-20
2021/12/21 02:51:20;;;;;;;3.20;0.70;;;;;;;-6.70;67.65;98517.39;102111;1313;76134;-20
2021/12/21 02:53:47;;;;;;;0.60;0.50;;;;;;;-6.97;68.33;98513.69;102164;1317;74598;-21
2021/12/21 02:56:14;;;;;;;0.70;0.60;;;;;;;-7.10;69.62;98521.52;102229;1313;61150;-20
2021/12/21 02:58:42;;;;;;;1.00;0.90;;;;;;;-7.26;70.58;98518.25;102241;1314;61145;-19
2021/12/21 03:01:10;;;;;;;1.80;0.70;;;;;;;-7.36;71.62;98522.81;102251;1310;75571;-20
2021/12/21 03:03:37;;;;;;;1.00;0.70;;;;;;;-7.52;73.27;98522.90;101984;1316;75149;-19
2021/12/21 03:06:10;;;;;;;1.40;1.00;;;;;;;-7.68;74.55;98521.31;102227;1313;74406;-20
2021/12/21 03:08:55;;;;;;;1.70;0.90;;;;;;;-7.73;75.38;98518.86;102253;1317;63670;-20
2021/12/21 03:11:36;;;;;;;1.80;0.80;;;;;;;-7.11;74.25;98519.16;102253;1317;61118;-20
2021/12/21 03:14:03;;;;;;;0.90;0.60;;;;;;;-6.49;72.00;98519.99;102264;1317;74757;-20
2021/12/21 03:16:32;;;;;;;0.70;0.60;;;;;;;-6.71;72.51;98519.42;102164;1317;76198;-20
2021/12/21 03:18:59;;;;;;;1.40;0.90;;;;;;;-6.70;72.54;98520.94;102015;1313;74275;-20
2021/12/21 03:21:27;;;;;;;1.20;0.70;;;;;;;-6.94;73.49;98521.89;102144;1313;61195;-20
2021/12/21 03:23:54;;;;;;;2.20;1.10;;;;;;;-6.99;73.65;98524.18;102046;1314;61263;-20
2021/12/21 03:26:21;;;;;;;1.70;0.90;;;;;;;-7.27;74.97;98522.66;102024;1311;74548;-19
2021/12/21 03:28:48;;;;;;;1.40;1.00;;;;;;;-7.41;75.75;98527.27;102117;1314;75940;-20
2021/12/21 03:31:15;;;;;;;1.50;1.00;;;;;;;-7.51;76.66;98523.23;102153;1311;74433;-20
2021/12/21 03:33:42;;;;;;;2.10;1.00;;;;;;;-7.52;77.04;98527.98;102153;1314;62762;-20
2021/12/21 03:36:10;;;;;;;1.80;1.20;;;;;;;-6.99;76.16;98525.19;102211;1314;61202;-20
2021/12/21 03:38:40;;;;;;;0.80;0.60;;;;;;;-6.55;74.92;98526.21;102261;1314;76188;-20
2021/12/21 03:41:13;;;;;;;1.70;1.10;;;;;;;-6.43;74.67;98530.35;102229;1314;76237;-20
2021/12/21 03:43:40;;;;;;;0.90;0.80;;;;;;;-6.62;76.13;98522.96;102226;1313;73252;-20
2021/12/21 03:46:12;;;;;;;0.60;0.40;;;;;;;-6.66;77.82;98521.88;102172;1313;61252;-20
2021/12/21 03:48:42;;;;;;;1.10;0.80;;;;;;;-6.91;79.34;98526.05;102121;1314;61192;-20
2021/12/21 03:51:14;;;;;;;2.00;1.20;;;;;;;-7.40;81.64;98516.63;101662;1316;75878;-20
2021/12/21 03:53:40;;;;;;;2.10;0.90;;;;;;;-7.58;82.24;98516.26;101676;1313;75219;-20
2021/12/21 03:58:34;;;;;;;1.20;0.90;;;;;;;-6.71;79.40;98530.73;102083;1313;61492;-20
2021/12/21 04:01:01;;;;;;;1.00;0.80;;;;;;;-7.03;79.36;98518.18;102016;1317;61963;-20
2021/12/21 04:03:28;;;;;;;2.10;1.10;;;;;;;-7.28;80.27;98517.95;102059;1317;75444;-20
2021/12/21 04:05:56;;;;;;;1.60;1.10;;;;;;;-7.39;80.07;98517.28;102034;1313;74847;-20
2021/12/21 04:08:23;;;;;;;1.50;1.20;;;;;;;-7.60;80.12;98519.51;101950;1319;74492;-20
2021/12/21 04:10:51;;;;;;;1.30;0.80;;;;;;;-7.61;80.30;98526.09;102093;1317;62659;-21
2021/12/21 04:13:18;;;;;;;1.40;0.90;;;;;;;-7.19;79.76;98525.04;101975;1317;61132;-20
2021/12/21 04:15:53;;;;;;;1.60;0.90;;;;;;;-6.94;78.56;98534.39;101906;1314;75690;-20
2021/12/21 04:18:22;;;;;;;;;;;;;;;-7.19;78.26;98532.47;101937;1313;75253;-20
2021/12/21 04:20:50;;;;;;;2.10;1.00;;;;;;;-7.42;78.32;98534.52;101734;1317;73314;-20
2021/12/21 04:23:17;;;;;;;1.00;0.70;;;;;;;-7.49;78.09;98529.93;102076;1317;61209;-20
2021/12/21 04:25:44;;;;;;;2.00;0.90;;;;;;;-7.71;78.15;98535.69;102024;1313;61241;-20
2021/12/21 04:28:11;;;;;;;1.40;0.90;;;;;;;-7.75;77.88;98539.61;102027;1313;75315;-20
2021/12/21 04:30:38;;;;;;;1.30;0.90;;;;;;;-7.29;75.03;98542.41;102107;1316;75897;-20
2021/12/21 04:33:06;;;;;;;1.00;0.80;;;;;;;-7.16;72.35;98542.36;102119;1317;72831;-20
2021/12/21 04:35:33;;;;;;;2.80;1.30;;;;;;;-7.19;71.40;98546.80;102153;1316;61232;-20
2021/12/21 04:38:13;;;;;;;1.40;0.90;;;;;;;-7.49;71.23;98546.45;102155;1316;61237;-18
2021/12/21 04:40:46;;;;;;;1.00;0.80;;;;;;;-7.59;70.58;98553.20;101872;1316;75381;-19
2021/12/21 04:43:14;;;;;;;1.50;1.10;;;;;;;-7.67;70.80;98557.20;102057;1313;76290;-19
2021/12/21 04:45:41;;;;;;;1.60;1.00;;;;;;;-7.75;69.90;98558.51;102080;1316;71919;-19
2021/12/21 04:48:08;;;;;;;1.70;1.00;;;;;;;-7.86;69.84;98562.87;102172;1314;61214;-19
2021/12/21 04:50:35;;;;;;;0.90;0.80;;;;;;;-7.89;70.82;98564.60;102212;1314;61644;-19
2021/12/21 04:53:02;;;;;;;1.00;0.80;;;;;;;-7.94;70.84;98561.80;102079;1311;75449;-20
2021/12/21 04:55:29;;;;;;;1.70;1.00;;;;;;;-7.44;69.01;98558.19;102095;1314;75987;-20
2021/12/21 04:57:56;;;;;;;1.00;0.80;;;;;;;-7.03;67.24;98561.21;102198;1313;74432;-20
2021/12/21 05:00:23;;;;;;;1.40;0.90;;;;;;;-7.02;66.45;98563.23;102290;1316;61201;-21
2021/12/21 05:02:50;;;;;;;1.20;0.90;;;;;;;-7.38;67.40;98568.54;102182;1316;61195;-19
2021/12/21 05:05:22;;;;;;;1.30;1.00;;;;;;;-7.58;67.59;98566.84;102109;1317;75463;-20
2021/12/21 05:07:54;;;;;;;1.50;1.00;;;;;;;-7.73;67.54;98566.56;102016;1317;75933;-20
2021/12/21 05:10:21;;;;;;;1.30;1.10;;;;;;;-7.81;67.77;98576.45;102040;1313;72728;-20
2021/12/21 05:12:51;;;;;;;0.80;0.70;;;;;;;-7.94;67.41;98573.77;101604;1316;61269;-20
2021/12/21 05:15:18;;;;;;;0.90;0.80;;;;;;;-8.02;68.12;98583.83;102161;1314;61098;-20
2021/12/21 05:17:45;;;;;;;2.10;1.00;;;;;;;-8.11;68.15;98578.55;102186;1316;75604;-20
2021/12/21 05:20:12;;;;;;;1.40;1.10;;;;;;;-8.07;67.67;98564.02;102065;1316;75910;-20
2021/12/21 05:22:39;;;;;;;1.60;1.00;;;;;;;-7.44;65.92;98568.48;102133;1313;74498;-20
2021/12/21 05:25:06;;;;;;;1.30;0.90;;;;;;;-7.12;64.04;98581.27;102140;1316;61882;-20
2021/12/21 05:27:34;;;;;;;1.40;1.00;;;;;;;-7.10;63.49;98576.01;101705;1319;61447;-20
2021/12/21 05:30:14;;;;;;;1.40;1.10;;;;;;;-7.50;63.91;98566.05;102037;1316;75547;-20
2021/12/21 05:32:41;;;;;;;2.40;1.00;;;;;;;-7.66;64.58;98580.12;102067;1317;75868;-20
2021/12/21 05:35:08;;;;;;;1.00;0.80;;;;;;;-7.85;64.84;98574.81;102131;1317;74839;-20
2021/12/21 05:37:38;;;;;;;1.70;1.00;;;;;;;-8.06;65.35;98575.63;101836;1314;62273;-20
2021/12/21 05:40:11;;;;;;;1.20;0.90;;;;;;;-8.15;65.42;98562.42;102087;1317;61210;-20
2021/12/21 05:42:39;;;;;;;2.10;0.90;;;;;;;-8.32;65.93;98576.11;101694;1317;73596;-20
2021/12/21 05:45:07;;;;;;;0.70;0.70;;;;;;;-8.37;66.21;98579.23;101655;1316;76050;-22
2021/12/21 05:47:34;;;;;;;1.80;1.20;;;;;;;-8.05;65.28;98582.69;101701;1314;73427;-20
2021/12/21 05:50:03;;;;;;;1.30;0.80;;;;;;;-7.49;63.49;98585.76;102106;1316;61170;-20
2021/12/21 05:52:32;;;;;;;1.50;1.10;;;;;;;-7.57;63.48;98584.88;101777;1315;62001;-20
2021/12/21 05:54:59;;;;;;;2.10;0.90;;;;;;;-7.55;63.56;98586.55;102236;1317;74789;-20
2021/12/21 05:57:26;;;;;;;1.80;0.70;;;;;;;-7.88;64.20;98587.84;102058;1313;75142;-20
2021/12/21 05:59:53;;;;;;;1.30;1.00;;;;;;;-8.04;64.93;98591.93;102099;1317;72877;-20
2021/12/21 06:02:21;;;;;;;4.20;0.80;;;;;;;-8.27;65.62;98592.90;102095;1313;62645;-19
2021/12/21 06:04:48;;;;;;;2.40;1.10;;;;;;;-8.53;66.27;98603.66;102179;1317;61241;-19
2021/12/21 06:07:24;;;;;;;3.00;1.00;;;;;;;-8.69;66.69;98602.16;102162;1314;75605;-19
2021/12/21 06:09:51;;;;;;;0.90;0.60;;;;;;;-8.78;66.86;98602.25;102130;1314;76273;-20
2021/12/21 06:12:41;;;;;;;1.40;1.00;;;;;;;-8.31;65.51;98608.77;102262;1313;72652;-20
2021/12/21 06:15:19;;;;;;;1.80;1.10;;;;;;;-8.03;64.11;98609.45;102080;1316;61081;-20
2021/12/21 06:23:42;;;;;;;2.10;1.00;;;;;;;-8.79;65.69;98622.98;102117;1317;75766;-20
2021/12/21 06:26:10;;;;;;;2.20;1.00;;;;;;;-8.87;66.50;98634.65;102003;1313;73413;-20
2021/12/21 06:28:37;;;;;;;0.90;0.70;;;;;;;-8.91;67.35;98635.88;101652;1316;62148;-20
2021/12/21 06:31:04;;;;;;;1.50;0.80;;;;;;;-8.90;67.35;98643.27;102017;1319;61118;-20
2021/12/21 06:33:32;;;;;;;2.00;1.00;;;;;;;-8.43;66.57;98648.31;102096;1314;74682;-20
2021/12/21 06:35:59;;;;;;;2.20;1.10;;;;;;;-8.02;65.11;98648.52;102055;1313;76036;-20
2021/12/21 06:38:26;;;;;;;1.50;1.00;;;;;;;-8.00;65.85;98658.77;102053;1313;74480;-20
2021/12/21 06:40:54;;;;;;;3.10;1.50;;;;;;;-8.13;67.13;98671.05;101638;1317;61173;-20
2021/12/21 06:43:21;;;;;;;4.90;1.90;;;;;;;-8.41;68.80;98677.77;102121;1314;62258;-20
2021/12/21 06:51:19;;;;;;;5.00;2.90;;;;;;;-9.01;77.28;98700.38;102006;1313;73488;-20
2021/12/21 06:53:51;;;;;;;3.90;2.10;;;;;;;-9.17;78.10;98697.80;101866;1319;63738;-20
2021/12/21 06:56:25;;;;;;;2.10;1.50;;;;;;;-8.67;77.25;98709.86;101621;1319;61224;-20
2021/12/21 06:58:54;;;;;;;7.80;4.90;;;;;;;-8.42;76.35;98709.95;101762;1317;74534;-20
2021/12/21 07:01:23;;;;;;;2.20;1.40;;;;;;;-8.34;75.60;98705.15;102161;1313;75864;-20
2021/12/21 07:03:50;;;;;;;2.50;1.20;;;;;;;-8.61;75.96;98712.33;102253;1317;74387;-20
2021/12/21 07:06:19;;;;;;;2.90;1.90;;;;;;;-9.17;76.58;98706.73;102172;1317;61215;-20
2021/12/21 07:19:35;;;;;;;1.50;1.20;;;;;;;-8.71;71.85;98724.71;102160;1317;61099;-21
2021/12/21 07:22:03;;;;;;;3.50;1.60;;;;;;;-8.57;69.35;98726.61;102166;1316;61753;-19
2021/12/21 07:24:31;;;;;;;3.10;1.50;;;;;;;-8.85;69.48;98730.22;102154;1319;73513;-18
2021/12/21 07:26:58;;;;;;;3.20;1.20;;;;;;;-9.24;69.22;98729.98;102239;1317;75864;-18
2021/12/21 07:29:25;;;;;;;2.50;1.50;;;;;;;-9.47;69.22;98736.84;102187;1314;74399;-19
2021/12/21 07:31:52;;;;;;;1.50;0.90;;;;;;;-9.64;70.18;98742.30;102142;1317;61301;-19
2021/12/21 07:34:19;;;;;;;1.40;0.80;;;;;;;-9.71;71.37;98744.85;101969;1313;61083;-19
2021/12/21 07:36:46;;;;;;;2.00;1.30;;;;;;;-9.57;71.39;98747.64;102157;1317;74483;-19
2021/12/21 07:39:19;;;;;;;2.80;1.70;;;;;;;-9.11;69.61;98756.46;102204;1317;75947;-18
2021/12/21 07:42:07;;;;;;;4.10;2.00;;;;;;;-9.41;70.10;98758.65;101727;1316;72966;-20
2021/12/21 07:44:35;;;;;;;3.20;1.80;;;;;;;-9.41;70.01;98767.73;102156;1317;61226;-19
2021/12/21 07:47:02;;;;;;;8.80;3.30;;;;;;;-9.85;67.51;98759.85;102231;1316;61189;-19
2021/12/21 07:49:29;;;;;;;6.80;2.70;;;;;;;-10.14;65.23;98768.50;102241;1317;75583;-19
2021/12/21 07:52:01;;;;;;;4.80;2.30;;;;;;;-10.56;64.04;98782.85;102072;1317;76058;-20
2021/12/21 07:54:28;;;;;;;2.50;1.30;;;;;;;-10.71;62.41;98777.83;101191;1316;1003271;-19
2021/12/21 07:56:55;;;;;;;5.70;1.90;;;;;;;-11.07;61.15;98773.44;102205;1317;62652;-20
2021/12/21 07:59:23;;;;;;;13.60;3.60;;;;;;;-10.71;60.12;98785.21;102173;1317;61229;-19
2021/12/21 08:01:50;;;;;;;7.00;2.50;;;;;;;-10.44;58.83;98794.41;102248;1313;75650;-19
2021/12/21 08:04:26;;;;;;;3.00;1.70;;;;;;;-10.44;57.96;98794.58;102249;1314;76090;-21
2021/12/21 08:07:02;;;;;;;4.90;2.60;;;;;;;-10.51;57.68;98805.00;101668;1314;72133;-19
2021/12/21 08:09:37;;;;;;;4.40;1.60;;;;;;;-10.60;58.03;98807.70;101749;1317;62196;-19
2021/12/21 08:12:16;;;;;;;11.60;3.40;;;;;;;-10.78;58.06;98812.72;102102;1319;61116;-19
2021/12/21 08:14:44;;;;;;;7.20;2.80;;;;;;;-10.75;58.37;98821.61;101791;1317;74979;-20
2021/12/21 08:17:11;;;;;;;6.20;1.80;;;;;;;-10.95;58.70;98823.59;101650;1316;75369;-19
2021/12/21 08:19:44;;;;;;;6.80;2.30;;;;;;;-11.02;59.22;98826.77;102009;1313;74569;-19
2021/12/21 08:22:12;;;;;;;3.40;1.90;;;;;;;-10.84;58.78;98827.80;101690;1317;61263;-21
2021/12/21 08:24:40;;;;;;;3.70;1.70;;;;;;;-11.09;60.20;98824.23;101869;1316;61830;-19
2021/12/21 08:27:07;;;;;;;5.50;2.70;;;;;;;-11.07;59.90;98831.11;101836;1316;74582;-21
2021/12/21 08:29:34;;;;;;;2.30;1.50;;;;;;;-10.98;60.12;98832.48;102124;1316;75022;-19
2021/12/21 08:32:02;;;;;;;2.60;1.40;;;;;;;-10.81;59.56;98833.52;102249;1319;74519;-19
2021/12/21 08:34:30;;;;;;;3.10;1.40;;;;;;;-10.88;59.24;98819.75;102232;1317;61172;-20
2021/12/21 08:36:57;;;;;;;5.60;1.20;;;;;;;-10.98;59.65;98834.83;102204;1317;62410;-20
2021/12/21 08:39:24;;;;;;;5.60;2.40;;;;;;;-11.06;59.76;98836.64;102304;1317;75636;-19
2021/12/21 08:41:56;;;;;;;2.60;1.80;;;;;;;-11.32;61.27;98837.75;102273;1314;76205;-20
2021/12/21 08:44:25;;;;;;;2.10;1.50;;;;;;;-11.22;61.35;98836.60;102118;1316;73436;-20
2021/12/21 08:46:52;;;;;;;5.10;1.80;;;;;;;-11.01;60.94;98844.20;102109;1314;61217;-20
2021/12/21 08:49:19;;;;;;;2.50;1.60;;;;;;;-10.82;60.19;98844.41;102036;1316;62021;-19
2021/12/21 08:51:47;;;;;;;2.70;1.10;;;;;;;-10.97;60.16;98846.39;102260;1313;74765;-20
2021/12/21 08:54:14;;;;;;;5.30;1.60;;;;;;;-11.08;60.72;98846.54;102234;1317;75077;-21
2021/12/21 08:56:44;;;;;;;2.90;1.20;;;;;;;-11.14;60.68;98847.35;102245;1316;74707;-20
2021/12/21 08:59:22;;;;;;;2.50;1.40;;;;;;;-11.27;61.09;98852.52;100066;1320;1003568;-19
2021/12/21 09:01:51;;;;;;;4.40;2.30;;;;;;;-11.24;61.67;98861.40;102188;1317;61226;-20
2021/12/21 09:04:19;;;;;;;4.80;1.80;;;;;;;-11.20;61.36;98857.72;102156;1317;74570;-20
2021/12/21 09:06:47;;;;;;;4.70;2.50;;;;;;;-10.98;60.55;98868.70;102264;1314;75850;-20
2021/12/21 09:09:14;;;;;;;4.00;1.60;;;;;;;-11.18;60.51;98862.43;102131;1316;74249;-20
2021/12/21 09:11:45;;;;;;;1.30;0.90;;;;;;;-10.90;60.12;98864.17;102175;1316;61129;-20
2021/12/21 09:14:12;;;;;;;2.50;1.20;;;;;;;-10.78;59.73;98867.73;102116;1316;61162;-20
2021/12/21 09:16:39;;;;;;;1.40;1.00;;;;;;;-10.54;59.85;98872.14;102185;1316;74703;-19
2021/12/21 09:19:06;;;;;;;2.20;1.30;;;;;;;-10.64;59.06;98862.73;102125;1317;73617;-19
2021/12/21 09:21:33;;;;;;;1.10;0.90;;;;;;;-10.49;58.42;98863.08;101896;1316;73415;-20
2021/12/21 09:24:00;;;;;;;1.00;0.80;;;;;;;-10.54;58.81;98869.95;102276;1317;61178;-20
2021/12/21 09:26:28;;;;;;;1.60;1.00;;;;;;;-10.48;58.26;98866.43;102271;1317;61227;-19
2021/12/21 09:28:56;;;;;;;2.60;1.40;;;;;;;-10.40;58.98;98867.95;102214;1317;75452;-20
2021/12/21 09:31:23;;;;;;;4.00;2.20;;;;;;;-10.18;58.27;98875.30;102188;1317;76187;-20
2021/12/21 09:33:51;;;;;;;2.40;1.20;;;;;;;-10.32;58.14;98872.13;102239;1317;74157;-20
2021/12/21 09:36:18;;;;;;;5.10;3.20;;;;;;;-10.46;57.98;98872.48;102226;1319;62122;-20
2021/12/21 09:38:45;;;;;;;3.90;2.00;;;;;;;-10.73;59.21;98876.98;102256;1320;61689;-20
2021/12/21 09:41:12;;;;;;;4.00;2.50;;;;;;;-10.78;59.54;98881.82;102245;1317;74605;-19
2021/12/21 09:43:43;;;;;;;2.30;1.60;;;;;;;-10.50;58.76;98883.04;102266;1317;75873;-21
2021/12/21 09:46:11;;;;;;;1.30;1.20;;;;;;;-10.44;58.91;98884.55;102255;1317;74432;-19
2021/12/21 09:48:38;;;;;;;2.50;1.70;;;;;;;-10.76;59.03;98888.54;102116;1319;61189;-20
2021/12/21 09:51:05;;;;;;;4.50;2.90;;;;;;;-10.78;58.92;98884.34;102120;1317;62068;-19
2021/12/21 09:53:34;;;;;;;1.90;1.40;;;;;;;-11.06;59.73;98879.75;102238;1317;74194;-19
2021/12/21 09:56:05;;;;;;;1.50;0.90;;;;;;;-10.95;60.52;98890.51;102238;1314;75910;-19
2021/12/21 09:58:33;;;;;;;7.60;1.50;;;;;;;-10.10;57.89;98892.77;102016;1317;74212;-20
2021/12/21 10:01:00;;;;;;;2.00;1.50;;;;;;;-9.83;56.92;98891.23;102308;1319;61214;-18
2021/12/21 10:03:27;;;;;;;1.10;0.80;;;;;;;-10.02;57.39;98896.45;102314;1317;62347;-19
2021/12/21 10:06:06;;;;;;;1.40;0.80;;;;;;;-9.60;56.48;98896.39;102228;1317;75575;-19
2021/12/21 10:08:34;;;;;;;0.80;0.70;;;;;;;-9.41;56.07;98890.80;102210;1313;75176;-19
2021/12/21 10:11:01;;;;;;;6.40;1.30;;;;;;;-9.54;56.44;98888.48;101710;1320;74472;-19
2021/12/21 10:13:28;;;;;;;14.10;1.40;;;;;;;-9.74;56.95;98893.91;101635;1317;61961;-19
2021/12/21 10:16:00;;;;;;;1.80;0.90;;;;;;;-9.89;57.36;98889.90;102100;1317;61162;-19
2021/12/21 10:18:40;;;;;;;3.00;0.80;;;;;;;-10.27;57.23;98891.94;101727;1316;75207;-19
2021/12/21 10:21:10;;;;;;;3.90;0.90;;;;;;;-10.39;57.59;98885.73;102207;1314;76207;-19
2021/12/21 10:23:42;;;;;;;2.80;1.40;;;;;;;-10.78;58.23;98879.98;102074;1313;73437;-18
2021/12/21 10:26:29;;;;;;;1.30;1.10;;;;;;;-10.45;59.17;98900.66;102195;1317;61198;-19
2021/12/21 10:29:00;;;;;;;1.40;0.90;;;;;;;-10.30;58.13;98911.91;102273;1314;61180;-19
2021/12/21 10:31:36;;;;;;;1.20;0.90;;;;;;;-10.27;57.87;98920.30;101906;1313;495979;-19
2021/12/21 10:34:05;;;;;;;1.30;1.10;;;;;;;-10.28;58.03;98925.34;101997;1319;73372;-19
2021/12/21 10:36:43;;;;;;;2.00;1.20;;;;;;;-10.24;57.61;98920.14;102022;1317;73263;-19
2021/12/21 10:39:10;;;;;;;2.00;1.30;;;;;;;-10.20;57.21;98919.47;102165;1317;61942;-19
2021/12/21 10:41:42;;;;;;;1.80;1.20;;;;;;;-10.10;57.41;98922.33;102221;1314;61493;-19
2021/12/21 10:44:16;;;;;;;5.50;1.30;;;;;;;-10.35;57.25;98912.58;101705;1317;75557;-18
2021/12/21 10:46:45;;;;;;;1.80;1.10;;;;;;;-10.67;58.96;98911.55;101949;1314;74728;-19
2021/12/21 10:49:31;;;;;;;1.60;1.00;;;;;;;-10.31;58.15;98924.00;101657;1316;73467;-19
2021/12/21 10:52:05;;;;;;;2.80;1.50;;;;;;;-10.23;57.90;98923.48;101370;1313;1003104;-19
2021/12/21 10:54:43;;;;;;;2.20;1.00;;;;;;;-10.23;56.92;98917.96;101656;1317;62041;-19
2021/12/21 10:57:23;;;;;;;3.10;1.60;;;;;;;-10.31;56.49;98912.25;101943;1314;75484;-19
2021/12/21 10:59:53;;;;;;;2.20;1.20;;;;;;;-10.58;55.85;98912.05;101899;1314;75810;-19
2021/12/21 11:02:27;;;;;;;1.60;0.90;;;;;;;-10.49;56.17;98924.67;101933;1316;72903;-18
2021/12/21 11:05:16;;;;;;;2.70;1.00;;;;;;;-10.43;55.76;98926.67;101964;1314;61265;-19
2021/12/21 11:07:52;;;;;;;0.90;0.60;;;;;;;-10.47;55.66;98925.17;101666;1318;62321;-18
2021/12/21 11:10:28;;;;;;;3.90;1.30;;;;;;;-10.35;56.05;98940.79;101631;1317;75727;-18
2021/12/21 11:13:12;;;;;;;1.20;0.70;;;;;;;-10.46;55.81;98943.14;101806;1317;75923;-18
2021/12/21 11:15:40;;;;;;;1.90;1.20;;;;;;;-10.16;55.56;98954.91;101830;1313;70511;-19
2021/12/21 11:18:16;;;;;;;3.60;2.10;;;;;;;-10.31;55.68;98957.08;101675;1316;61165;-19
2021/12/21 11:20:58;;;;;;;2.90;1.60;;;;;;;-10.43;56.58;98958.08;101754;1317;61126;-18
2021/12/21 11:23:26;;;;;;;2.60;1.20;;;;;;;-10.36;56.10;98959.09;102050;1311;74571;-19
2021/12/21 11:25:56;;;;;;;2.60;1.00;;;;;;;-10.12;55.49;98964.14;101714;1316;74457;-18
2021/12/21 11:28:35;;;;;;;2.20;1.20;;;;;;;-9.89;55.39;98962.47;101947;1313;73363;-19
2021/12/21 11:31:03;;;;;;;1.40;1.00;;;;;;;-10.09;55.60;98962.80;101679;1317;61229;-18
2021/12/21 11:33:40;;;;;;;1.80;1.10;;;;;;;-10.33;55.67;98972.50;101718;1320;61230;-19
2021/12/21 11:38:52;;;;;;;2.50;1.50;;;;;;;-9.38;53.19;98974.19;102061;1313;75310;-19
2021/12/21 11:41:20;;;;;;;2.50;1.10;;;;;;;-9.25;52.30;98974.50;101925;1313;74500;-19
2021/12/21 11:43:54;;;;;;;6.80;1.30;;;;;;;-9.46;53.19;98975.22;101663;1313;61239;-19
2021/12/21 11:46:26;;;;;;;1.80;0.90;;;;;;;-9.38;52.88;98973.86;101632;1317;61147;-19
2021/12/21 11:49:05;;;;;;;2.70;1.30;;;;;;;-9.31;52.67;98979.39;101664;1315;73189;-18
2021/12/21 11:51:33;;;;;;;3.20;0.90;;;;;;;-9.47;53.27;98977.23;101859;1316;76021;-19
2021/12/21 11:54:01;;;;;;;1.80;1.20;;;;;;;-9.56;53.61;98983.81;102278;1314;72782;-18
2021/12/21 11:57:20;;;;;;;1.70;0.90;;;;;;;-9.71;53.96;98984.48;98874;1351;600372;-19
2021/12/21 11:59:48;;;;;;;2.50;1.00;;;;;;;-9.27;53.07;98986.77;101140;1326;62706;-20
2021/12/21 12:02:28;;;;;;;2.20;1.00;;;;;;;-8.59;51.14;98997.15;101205;1325;61291;-20
2021/12/21 12:04:57;;;;;;;1.60;1.00;;;;;;;-8.25;50.36;99005.71;100830;1325;72979;-20
2021/12/21 12:07:26;;;;;;;2.20;1.10;;;;;;;-8.49;50.38;99006.20;101229;1325;75096;-19
2021/12/21 12:10:05;;;;;;;1.50;1.10;;;;;;;-8.64;50.73;99009.48;100928;1322;218806;-20
2021/12/21 12:12:39;;;;;;;9.00;0.90;;;;;;;-9.07;52.21;99009.11;101234;1322;61079;-19
2021/12/21 12:15:09;;;;;;;2.60;1.80;;;;;;;-9.55;54.15;98996.40;101688;1319;62297;-19
2021/12/21 12:17:49;;;;;;;1.70;1.10;;;;;;;-9.78;55.25;99005.83;101294;1325;73946;-20
2021/12/21 12:20:26;;;;;;;1.00;0.70;;;;;;;-9.93;55.28;98998.26;101556;1322;75350;-19
2021/12/21 12:23:03;;;;;;;2.30;0.90;;;;;;;-9.17;54.16;99003.73;101303;1319;74491;-20
2021/12/21 12:25:31;;;;;;;0.60;0.50;;;;;;;-8.60;52.60;99005.41;101375;1322;61260;-20
2021/12/21 12:28:01;;;;;;;1.20;1.10;;;;;;;-8.75;52.32;99009.17;101663;1319;62295;-20
2021/12/21 12:30:29;;;;;;;2.60;1.50;;;;;;;-9.32;53.00;98996.89;101399;1322;73562;-20
2021/12/21 12:33:05;;;;;;;1.00;0.90;;;;;;;-9.52;53.64;99005.14;101566;1325;76059;-19
2021/12/21 12:35:35;;;;;;;2.80;1.50;;;;;;;-9.81;54.64;99008.69;101246;1322;72877;-19